createdAt,value
2023-01-25T00:02:23.315Z,0.90
2023-01-25T00:04:51.209Z,0.90
2023-01-25T00:07:18.979Z,0.90
2023-01-25T00:09:46.738Z,0.90
2023-01-25T00:12:14.495Z,0.90
2023-01-25T00:14:42.321Z,0.90
2023-01-25T00:17:11.396Z,0.90
2023-01-25T00:19:39.147Z,0.90
2023-01-25T00:22:06.944Z,0.90
2023-01-25T00:24:34.800Z,0.90
2023-01-25T00:27:03.309Z,0.90
2023-01-25T00:29:31.142Z,0.90
2023-01-25T00:32:08.873Z,1.00
2023-01-25T00:34:45.639Z,1.10
2023-01-25T00:37:21.670Z,1.00
2023-01-25T00:39:49.535Z,1.00
2023-01-25T00:42:17.724Z,1.00
2023-01-25T00:44:45.967Z,0.90
2023-01-25T00:47:13.871Z,0.90
2023-01-25T00:49:43.624Z,0.80
2023-01-25T00:52:11.411Z,0.80
2023-01-25T00:54:39.273Z,0.80
2023-01-25T00:57:07.250Z,0.90
2023-01-25T00:59:35.357Z,0.80
2023-01-25T01:02:03.425Z,0.80
2023-01-25T01:04:31.667Z,0.80
2023-01-25T01:07:00.835Z,1.00
2023-01-25T01:09:28.636Z,1.30
2023-01-25T01:11:56.423Z,1.20
2023-01-25T01:14:24.536Z,1.10
2023-01-25T01:16:52.422Z,1.00
2023-01-25T01:19:20.265Z,1.00
2023-01-25T01:21:48.052Z,1.00
2023-01-25T01:24:17.902Z,1.00
2023-01-25T01:26:45.708Z,0.90
2023-01-25T01:29:13.703Z,0.90
2023-01-25T01:31:41.525Z,1.00
2023-01-25T01:34:10.931Z,0.80
2023-01-25T01:36:38.688Z,0.90
2023-01-25T01:39:06.431Z,0.80
2023-01-25T01:41:35.596Z,0.90
2023-01-25T01:44:03.326Z,0.90
2023-01-25T01:46:34.405Z,1.00
2023-01-25T01:49:02.861Z,0.80
2023-01-25T01:51:39.072Z,0.90
2023-01-25T01:54:08.548Z,0.90
2023-01-25T01:56:41.531Z,0.80
2023-01-25T01:59:09.302Z,0.70
2023-01-25T02:01:37.206Z,0.80
2023-01-25T02:04:05.096Z,0.80
2023-01-25T02:06:35.509Z,0.70
2023-01-25T02:09:03.273Z,0.80
2023-01-25T02:11:31.066Z,0.90
2023-01-25T02:14:00.298Z,0.80
2023-01-25T02:16:28.884Z,0.80
2023-01-25T02:18:57.786Z,0.70
2023-01-25T02:21:25.792Z,0.70
2023-01-25T02:23:55.416Z,0.80
2023-01-25T02:26:24.576Z,0.80
2023-01-25T02:28:54.981Z,0.70
2023-01-25T02:31:22.860Z,0.60
2023-01-25T02:33:50.705Z,0.60
2023-01-25T02:36:23.150Z,0.70
2023-01-25T02:38:54.374Z,0.60
2023-01-25T02:41:26.298Z,0.70
2023-01-25T02:43:54.631Z,0.70
2023-01-25T02:46:25.925Z,0.60
2023-01-25T02:48:54.616Z,0.60
2023-01-25T02:51:22.688Z,0.70
2023-01-25T02:53:50.564Z,0.80
2023-01-25T02:56:18.472Z,0.80
2023-01-25T02:58:47.619Z,0.70
2023-01-25T03:01:15.569Z,0.70
2023-01-25T03:03:43.356Z,0.60
2023-01-25T03:06:11.188Z,0.70
2023-01-25T03:08:38.979Z,0.70
2023-01-25T03:11:07.167Z,0.60
2023-01-25T03:13:35.268Z,0.70
2023-01-25T03:16:05.391Z,0.60
2023-01-25T03:18:33.329Z,0.60
2023-01-25T03:21:06.304Z,0.70
2023-01-25T03:23:34.181Z,0.60
2023-01-25T03:26:09.491Z,0.60
2023-01-25T03:28:37.475Z,0.70
2023-01-25T03:31:06.814Z,0.70
2023-01-25T03:33:34.597Z,0.80
2023-01-25T03:36:02.493Z,0.60
2023-01-25T03:38:30.297Z,0.60
2023-01-25T03:40:58.079Z,0.70
2023-01-25T03:43:26.117Z,0.60
2023-01-25T03:45:54.211Z,0.50
2023-01-25T03:48:23.564Z,0.60
2023-01-25T03:50:52.077Z,0.50
2023-01-25T03:53:27.450Z,0.60
2023-01-25T03:55:56.291Z,0.60
2023-01-25T03:58:24.117Z,0.60
2023-01-25T04:00:52.052Z,0.70
2023-01-25T04:03:21.534Z,0.60
2023-01-25T04:05:50.718Z,0.70
2023-01-25T04:08:18.578Z,0.60
2023-01-25T04:10:46.877Z,0.50
2023-01-25T04:13:14.772Z,0.60
2023-01-25T04:15:42.558Z,0.60
2023-01-25T04:18:10.389Z,0.50
2023-01-25T04:20:38.164Z,0.50
2023-01-25T04:23:07.646Z,0.50
2023-01-25T04:25:35.496Z,0.60
2023-01-25T04:28:03.295Z,0.50
2023-01-25T04:30:31.097Z,0.50
2023-01-25T04:33:03.147Z,0.50
2023-01-25T04:35:30.970Z,0.50
2023-01-25T04:37:59.390Z,0.40
2023-01-25T04:40:28.605Z,0.40
2023-01-25T04:42:56.396Z,0.40
2023-01-25T04:45:24.259Z,0.40
2023-01-25T04:47:56.413Z,0.40
2023-01-25T04:50:24.208Z,0.40
2023-01-25T04:52:52.106Z,0.40
2023-01-25T04:55:19.986Z,0.30
2023-01-25T04:57:51.500Z,0.30
2023-01-25T05:00:19.811Z,0.30
2023-01-25T05:02:47.835Z,0.40
2023-01-25T05:05:15.942Z,0.40
2023-01-25T05:07:43.920Z,0.40
2023-01-25T05:10:12.265Z,0.60
2023-01-25T05:12:40.065Z,0.60
2023-01-25T05:15:10.461Z,0.50
2023-01-25T05:17:38.900Z,0.50
2023-01-25T05:20:07.287Z,0.40
2023-01-25T05:22:35.079Z,0.40
2023-01-25T05:25:03.760Z,0.50
2023-01-25T05:27:30.615Z,0.50
2023-01-25T05:29:59.599Z,0.40
2023-01-25T05:32:28.806Z,0.40
2023-01-25T05:34:56.635Z,0.40
2023-01-25T05:37:24.456Z,0.30
2023-01-25T05:39:52.274Z,0.20
2023-01-25T05:42:20.287Z,0.30
2023-01-25T05:44:48.250Z,0.30
2023-01-25T05:47:17.445Z,0.40
2023-01-25T05:49:47.284Z,0.40
2023-01-25T05:52:15.355Z,0.50
2023-01-25T05:54:43.169Z,0.30
2023-01-25T05:57:10.959Z,0.30
2023-01-25T05:59:38.770Z,0.20
2023-01-25T06:02:06.636Z,0.20
2023-01-25T06:04:34.438Z,0.10
2023-01-25T06:07:03.605Z,0.10
2023-01-25T06:09:31.398Z,0.10
2023-01-25T06:11:59.217Z,0.10
2023-01-25T06:14:26.999Z,0.10
2023-01-25T06:16:54.814Z,0.30
2023-01-25T06:19:22.648Z,1.10
2023-01-25T06:21:51.391Z,1.40
2023-01-25T06:24:20.578Z,0.80
2023-01-25T06:26:48.388Z,0.60
2023-01-25T06:29:16.194Z,0.50
2023-01-25T06:31:44.146Z,0.50
2023-01-25T06:34:12.043Z,0.50
2023-01-25T06:36:39.851Z,0.60
2023-01-25T06:39:07.674Z,0.50
2023-01-25T06:41:36.836Z,0.50
2023-01-25T06:44:04.701Z,0.30
2023-01-25T06:46:33.247Z,0.30
2023-01-25T06:49:01.046Z,0.20
2023-01-25T06:51:28.866Z,0.10
2023-01-25T06:53:56.692Z,0.50
2023-01-25T06:56:24.842Z,0.60
2023-01-25T06:58:53.978Z,0.40
2023-01-25T07:01:23.554Z,0.20
2023-01-25T07:03:51.924Z,0.20
2023-01-25T07:06:19.964Z,0.30
2023-01-25T07:08:47.809Z,0.20
2023-01-25T07:11:15.617Z,0.20
2023-01-25T07:13:45.558Z,0.20
2023-01-25T07:16:15.608Z,0.20
2023-01-25T07:18:43.485Z,0.50
2023-01-25T07:21:14.217Z,0.30
2023-01-25T07:23:42.108Z,0.80
2023-01-25T07:26:15.302Z,0.40
2023-01-25T07:28:43.132Z,0.30
2023-01-25T07:31:11.044Z,0.20
2023-01-25T07:33:40.207Z,0.30
2023-01-25T07:36:09.283Z,0.30
2023-01-25T07:38:37.438Z,0.30
2023-01-25T07:41:05.495Z,0.30
2023-01-25T07:43:33.351Z,0.60
2023-01-25T07:46:04.211Z,0.20
2023-01-25T07:48:32.359Z,0.30
2023-01-25T07:51:22.665Z,0.00
2023-01-25T07:53:51.983Z,0.00
2023-01-25T07:56:20.179Z,0.00
2023-01-25T07:58:47.998Z,0.10
2023-01-25T08:01:16.660Z,0.10
2023-01-25T08:03:44.921Z,0.00
2023-01-25T08:06:14.200Z,0.00
2023-01-25T08:08:43.046Z,-0.10
2023-01-25T08:11:13.082Z,0.00
2023-01-25T08:13:40.919Z,0.00
2023-01-25T08:16:08.858Z,0.00
2023-01-25T08:18:36.881Z,-0.10
2023-01-25T08:21:05.003Z,0.00
2023-01-25T08:23:34.196Z,0.10
2023-01-25T08:26:03.260Z,0.00
2023-01-25T08:28:31.108Z,0.20
2023-01-25T08:31:06.489Z,1.00
2023-01-25T08:33:34.377Z,3.00
2023-01-25T08:36:02.285Z,1.50
2023-01-25T08:38:30.117Z,1.00
2023-01-25T08:41:05.374Z,0.70
2023-01-25T08:43:33.330Z,0.60
2023-01-25T08:46:01.168Z,0.70
2023-01-25T08:48:29.022Z,2.40
2023-01-25T08:50:56.999Z,2.20
2023-01-25T08:53:24.888Z,2.30
2023-01-25T08:55:52.681Z,2.20
2023-01-25T08:58:22.413Z,2.60
2023-01-25T09:00:50.339Z,1.50
2023-01-25T09:03:18.988Z,0.80
2023-01-25T09:05:47.800Z,0.60
2023-01-25T09:08:15.603Z,0.70
2023-01-25T09:10:43.439Z,0.40
2023-01-25T09:13:11.838Z,0.40
2023-01-25T09:15:41.074Z,0.50
2023-01-25T09:18:09.463Z,0.40
2023-01-25T09:20:39.163Z,0.40
2023-01-25T09:23:06.975Z,0.50
2023-01-25T09:25:35.712Z,0.50
2023-01-25T09:28:11.906Z,0.30
2023-01-25T09:30:47.947Z,0.40
2023-01-25T09:33:19.626Z,0.40
2023-01-25T09:35:50.625Z,0.40
2023-01-25T09:38:18.423Z,0.40
2023-01-25T09:40:49.042Z,0.50
2023-01-25T09:43:18.516Z,0.80
2023-01-25T09:45:47.687Z,0.80
2023-01-25T09:48:19.589Z,0.70
2023-01-25T09:51:00.819Z,0.70
2023-01-25T09:53:32.155Z,0.70
2023-01-25T09:56:01.791Z,0.70
2023-01-25T09:58:32.865Z,0.80
2023-01-25T10:01:38.726Z,0.70
2023-01-25T10:04:11.659Z,0.70
2023-01-25T10:06:42.212Z,0.80
2023-01-25T10:09:20.955Z,0.80
2023-01-25T10:11:48.799Z,0.70
2023-01-25T10:14:17.563Z,0.80
2023-01-25T10:16:52.197Z,0.80
2023-01-25T10:19:22.669Z,0.60
2023-01-25T10:21:52.509Z,0.60
2023-01-25T10:24:42.400Z,0.70
2023-01-25T10:27:17.591Z,0.70
2023-01-25T10:29:45.437Z,1.00
2023-01-25T10:32:18.669Z,1.00
2023-01-25T10:34:56.418Z,0.90
2023-01-25T10:37:26.608Z,0.80
2023-01-25T10:39:57.605Z,0.80
2023-01-25T10:42:26.788Z,0.80
2023-01-25T10:44:54.610Z,0.60
2023-01-25T10:47:25.243Z,0.70
2023-01-25T10:49:53.640Z,0.60
2023-01-25T10:52:22.455Z,0.50
2023-01-25T10:55:04.105Z,0.50
2023-01-25T10:57:31.909Z,0.50
2023-01-25T10:59:59.736Z,0.60
2023-01-25T11:02:45.873Z,0.60
2023-01-25T11:05:28.898Z,0.60
2023-01-25T11:07:56.884Z,0.70
2023-01-25T11:10:32.405Z,0.80
2023-01-25T11:13:20.800Z,1.00
2023-01-25T11:15:49.236Z,0.70
2023-01-25T11:18:20.235Z,0.80
2023-01-25T11:20:48.104Z,0.60
2023-01-25T11:23:22.922Z,0.80
2023-01-25T11:25:50.732Z,0.70
2023-01-25T11:28:20.141Z,0.60
2023-01-25T11:30:48.135Z,0.70
2023-01-25T11:33:17.967Z,0.60
2023-01-25T11:36:04.590Z,0.60
2023-01-25T11:38:32.409Z,0.50
2023-01-25T11:41:05.448Z,0.70
2023-01-25T11:43:48.329Z,0.70
2023-01-25T11:46:26.288Z,0.70
2023-01-25T11:49:20.143Z,0.80
2023-01-25T11:51:52.391Z,0.70
2023-01-25T11:54:57.569Z,0.80
2023-01-25T11:57:32.157Z,0.70
2023-01-25T12:00:05.973Z,0.90
2023-01-25T12:03:06.431Z,0.70
2023-01-25T12:05:41.329Z,0.70
2023-01-25T12:08:20.292Z,0.80
2023-01-25T12:10:51.153Z,0.60
2023-01-25T12:13:21.420Z,0.70
2023-01-25T12:15:57.364Z,0.70
2023-01-25T12:18:38.153Z,0.60
2023-01-25T12:21:10.459Z,0.60
2023-01-25T12:23:53.676Z,0.60
2023-01-25T12:26:27.036Z,0.50
2023-01-25T12:29:03.479Z,0.60
2023-01-25T12:31:36.043Z,0.60
2023-01-25T12:34:05.017Z,0.70
2023-01-25T12:36:35.506Z,0.70
2023-01-25T12:39:04.794Z,0.60
2023-01-25T12:41:37.053Z,0.70
2023-01-25T12:44:09.685Z,0.80
2023-01-25T12:46:40.334Z,0.90
2023-01-25T12:49:12.838Z,0.70
2023-01-25T12:51:42.683Z,0.70
2023-01-25T12:54:15.322Z,0.70
2023-01-25T12:56:45.074Z,0.80
2023-01-25T12:59:16.859Z,0.70
2023-01-25T13:01:47.644Z,0.70
2023-01-25T13:04:25.722Z,0.70
2023-01-25T13:06:57.314Z,0.70
2023-01-25T13:09:29.086Z,0.60
2023-01-25T13:11:56.894Z,0.70
2023-01-25T13:14:31.278Z,0.70
2023-01-25T13:17:24.910Z,0.80
2023-01-25T13:19:53.392Z,0.80
2023-01-25T13:22:58.768Z,0.60
2023-01-25T13:25:27.483Z,0.70
2023-01-25T13:28:21.645Z,0.70
2023-01-25T13:30:52.964Z,0.80
2023-01-25T13:33:33.467Z,0.80
2023-01-25T13:36:24.292Z,0.90
2023-01-25T13:38:53.426Z,0.70
2023-01-25T13:41:21.835Z,0.60
2023-01-25T13:43:50.875Z,0.60
2023-01-25T13:46:19.792Z,0.70
2023-01-25T13:48:55.254Z,0.60
2023-01-25T13:51:23.039Z,0.70
2023-01-25T13:53:59.435Z,0.60
2023-01-25T13:56:34.250Z,0.70
2023-01-25T13:59:02.070Z,0.60
2023-01-25T14:01:30.709Z,0.60
2023-01-25T14:04:01.596Z,0.50
2023-01-25T14:06:30.640Z,0.60
2023-01-25T14:09:02.924Z,0.70
2023-01-25T14:11:31.622Z,0.80
2023-01-25T14:14:00.666Z,0.70
2023-01-25T14:16:30.057Z,0.80
2023-01-25T14:18:59.850Z,0.70
2023-01-25T14:21:27.682Z,0.80
2023-01-25T14:23:55.487Z,0.80
2023-01-25T14:26:25.926Z,0.70
2023-01-25T14:29:01.430Z,0.60
2023-01-25T14:31:32.152Z,0.60
2023-01-25T14:34:00.046Z,0.60
2023-01-25T14:36:29.993Z,0.70
2023-01-25T14:38:57.899Z,0.60
2023-01-25T14:41:28.928Z,0.90
2023-01-25T14:43:57.216Z,0.80
2023-01-25T14:46:36.100Z,0.80
2023-01-25T15:00:32.072Z,0.50
2023-01-25T15:03:00.590Z,0.40
2023-01-25T15:05:40.669Z,0.50
2023-01-25T15:08:16.627Z,0.50
2023-01-25T15:14:50.769Z,0.30
2023-01-25T15:21:08.307Z,0.40
2023-01-25T15:23:42.559Z,0.50
2023-01-25T15:26:15.033Z,0.40
2023-01-25T15:36:20.342Z,0.40
2023-01-25T15:38:48.198Z,0.50
2023-01-25T15:41:18.349Z,0.50
2023-01-25T15:43:46.163Z,0.60
2023-01-25T15:46:16.744Z,0.20
2023-01-25T15:52:51.718Z,0.30
2023-01-25T15:55:19.535Z,0.30
2023-01-25T15:57:47.347Z,0.30
2023-01-25T16:00:19.289Z,0.30
2023-01-25T16:02:47.265Z,0.30
2023-01-25T16:05:15.163Z,0.10
2023-01-25T16:07:43.554Z,0.30
2023-01-25T16:10:20.300Z,0.00
2023-01-25T16:12:48.227Z,0.10
2023-01-25T16:15:16.418Z,0.20
2023-01-25T16:17:44.289Z,0.10
2023-01-25T16:20:19.464Z,0.30
2023-01-25T16:22:47.491Z,0.20
2023-01-25T16:25:16.974Z,0.20
2023-01-25T16:27:44.967Z,0.10
2023-01-25T16:30:18.662Z,0.00
2023-01-25T16:32:46.725Z,0.00
2023-01-25T16:35:14.694Z,0.00
2023-01-25T16:37:42.494Z,0.00
2023-01-25T16:40:20.567Z,0.00
2023-01-25T16:42:48.455Z,0.10
2023-01-25T16:45:16.963Z,0.10
2023-01-25T16:47:44.831Z,0.10
2023-01-25T16:50:14.377Z,0.00
2023-01-25T16:52:43.561Z,0.10
2023-01-25T16:55:12.222Z,0.20
2023-01-25T16:57:41.924Z,0.10
2023-01-25T17:00:12.047Z,0.00
2023-01-25T17:02:44.112Z,-0.20
2023-01-25T17:09:20.608Z,-0.20
2023-01-25T17:15:32.400Z,0.00
2023-01-25T17:18:00.271Z,-0.10
2023-01-25T17:20:28.198Z,-0.20
2023-01-25T17:23:01.892Z,-0.10
2023-01-25T17:25:32.532Z,-0.10
2023-01-25T17:28:00.678Z,-0.10
2023-01-25T17:30:28.754Z,-0.10
2023-01-25T17:32:58.330Z,-0.10
2023-01-25T17:35:26.278Z,-0.10
2023-01-25T17:37:55.016Z,-0.20
2023-01-25T17:40:23.112Z,0.00
2023-01-25T17:42:51.337Z,-0.20
2023-01-25T17:45:19.515Z,-0.10
2023-01-25T17:47:47.450Z,-0.10
2023-01-25T17:50:17.516Z,-0.10
2023-01-25T17:52:45.438Z,-0.30
2023-01-25T17:55:13.473Z,-0.20
2023-01-25T17:57:41.395Z,-0.30
2023-01-25T18:00:12.877Z,-0.20
2023-01-25T18:02:43.774Z,-0.30
2023-01-25T18:05:11.923Z,-0.20
2023-01-25T18:07:41.288Z,-0.30
2023-01-25T18:10:10.620Z,-0.30
2023-01-25T18:23:06.917Z,-0.10
2023-01-25T18:25:59.967Z,0.30
2023-01-25T18:28:28.162Z,0.00
2023-01-25T18:31:00.417Z,-0.10
2023-01-25T18:33:28.743Z,-0.10
2023-01-25T18:36:01.275Z,-0.10
2023-01-25T18:38:32.866Z,0.10
2023-01-25T18:41:01.383Z,0.00
2023-01-25T18:43:29.278Z,-0.30
2023-01-25T18:49:44.903Z,-0.30
2023-01-25T18:56:01.820Z,-0.30
2023-01-25T18:58:32.163Z,-0.30
2023-01-25T19:01:04.050Z,-0.30
2023-01-25T19:03:32.120Z,-0.30
2023-01-25T19:06:00.210Z,-0.20
2023-01-25T19:08:28.335Z,-0.40
2023-01-25T19:11:01.587Z,-0.30
2023-01-25T19:13:32.116Z,-0.50
2023-01-25T19:16:04.268Z,-0.50
2023-01-25T19:18:33.278Z,-0.50
2023-01-25T19:21:01.233Z,-0.30
2023-01-25T19:23:33.761Z,-0.20
2023-01-25T19:26:03.233Z,-0.30
2023-01-25T19:28:31.156Z,-0.30
2023-01-25T19:31:06.545Z,-0.40
2023-01-25T19:33:34.725Z,-0.50
2023-01-25T19:36:04.270Z,-0.40
2023-01-25T19:38:32.249Z,-0.50
2023-01-25T19:41:05.866Z,-0.50
2023-01-25T19:43:33.710Z,-0.40
2023-01-25T19:46:09.374Z,-0.30
2023-01-25T19:48:37.243Z,-0.20
2023-01-25T19:51:12.273Z,-0.10
2023-01-25T19:53:40.164Z,-0.10
2023-01-25T19:56:09.665Z,-0.30
2023-01-25T19:58:37.494Z,-0.40
2023-01-25T20:01:08.929Z,-0.40
2023-01-25T20:03:36.973Z,-0.30
2023-01-25T20:06:06.920Z,-0.20
2023-01-25T20:08:35.204Z,0.10
2023-01-25T20:11:04.318Z,-0.10
2023-01-25T20:13:33.497Z,-0.30
2023-01-25T20:16:01.344Z,-0.50
2023-01-25T20:18:29.620Z,-0.50
2023-01-25T20:20:57.923Z,-0.30
2023-01-25T20:23:25.913Z,-0.30
2023-01-25T20:25:58.180Z,-0.20
2023-01-25T20:28:26.093Z,-0.40
2023-01-25T20:30:55.491Z,-0.50
2023-01-25T20:33:23.380Z,-0.30
2023-01-25T20:35:51.252Z,-0.30
2023-01-25T20:38:19.120Z,-0.40
2023-01-25T20:40:46.928Z,-0.50
2023-01-25T20:43:14.749Z,-0.50
2023-01-25T20:45:42.536Z,-0.60
2023-01-25T20:48:11.703Z,-0.60
2023-01-25T20:50:39.529Z,-0.60
2023-01-25T20:53:07.411Z,-0.70
2023-01-25T20:55:37.563Z,-0.70
2023-01-25T20:58:05.600Z,-0.60
2023-01-25T21:00:33.779Z,-0.60
2023-01-25T21:03:01.844Z,-0.50
2023-01-25T21:05:31.084Z,-0.60
2023-01-25T21:07:59.273Z,-0.50
2023-01-25T21:10:27.404Z,-0.60
2023-01-25T21:12:55.385Z,-0.60
2023-01-25T21:15:25.585Z,-0.60
2023-01-25T21:17:55.724Z,-0.60
2023-01-25T21:20:23.844Z,-0.50
2023-01-25T21:22:53.196Z,-0.60
2023-01-25T21:25:21.271Z,-0.50
2023-01-25T21:27:50.063Z,-0.50
2023-01-25T21:30:18.999Z,-0.50
2023-01-25T21:32:47.048Z,-0.60
2023-01-25T21:35:15.076Z,-0.60
2023-01-25T21:37:44.510Z,-0.70
2023-01-25T21:40:15.178Z,-0.60
2023-01-25T21:42:43.110Z,-0.40
2023-01-25T21:45:29.526Z,-0.60
2023-01-25T21:48:00.467Z,-0.80
2023-01-25T21:50:45.853Z,-0.70
2023-01-25T21:53:13.971Z,-0.70
2023-01-25T21:55:43.226Z,-0.70
2023-01-25T21:58:11.372Z,-0.70
2023-01-25T22:00:39.196Z,-0.80
2023-01-25T22:03:07.364Z,-0.50
2023-01-25T22:05:35.267Z,-0.40
2023-01-25T22:08:03.339Z,-0.60
2023-01-25T22:10:31.397Z,-0.50
2023-01-25T22:13:00.818Z,-0.70
2023-01-25T22:15:28.825Z,-0.70
2023-01-25T22:17:56.787Z,-0.60
2023-01-25T22:20:24.757Z,-0.70
2023-01-25T22:22:52.720Z,-0.70
2023-01-25T22:25:20.674Z,-0.70
2023-01-25T22:27:51.731Z,-0.70
2023-01-25T22:30:21.250Z,-0.70
2023-01-25T22:32:49.227Z,-0.60
2023-01-25T22:35:17.246Z,-0.80
2023-01-25T22:37:45.168Z,-0.80
2023-01-25T22:40:14.320Z,-0.80
2023-01-25T22:42:42.386Z,-0.70
2023-01-25T22:45:11.031Z,-0.70
2023-01-25T22:47:41.923Z,-0.70
2023-01-25T22:50:11.547Z,-0.70
2023-01-25T22:52:39.957Z,-0.70
2023-01-25T22:55:08.835Z,-0.70
2023-01-25T22:57:36.735Z,-0.70
2023-01-25T23:00:05.228Z,-0.80
2023-01-25T23:02:33.087Z,-0.70
2023-01-25T23:05:02.356Z,-0.80
2023-01-25T23:07:30.342Z,-0.80
2023-01-25T23:09:58.408Z,-0.80
2023-01-25T23:12:26.526Z,-0.80
2023-01-25T23:14:54.959Z,-0.80
2023-01-25T23:17:41.393Z,-0.90
2023-01-25T23:20:12.224Z,-0.90
2023-01-25T23:22:40.839Z,-0.90
2023-01-25T23:25:09.998Z,-0.90
2023-01-25T23:27:38.015Z,-0.80
2023-01-25T23:30:07.740Z,-0.70
2023-01-25T23:32:51.503Z,-0.70
2023-01-25T23:35:21.301Z,-0.70
2023-01-25T23:37:58.447Z,-0.70
2023-01-25T23:40:26.694Z,-0.60
2023-01-25T23:42:54.877Z,-0.80
2023-01-25T23:45:23.026Z,-0.70
2023-01-25T23:47:50.942Z,-0.80
2023-01-25T23:50:20.444Z,-0.80
2023-01-25T23:52:48.375Z,-0.90
2023-01-25T23:55:16.621Z,-0.90
2023-01-25T23:57:44.809Z,-0.80
